createdAt,value
2017-11-16T00:02:27.590Z,101682
2017-11-16T00:04:58.452Z,101676
2017-11-16T00:07:28.325Z,101674
2017-11-16T00:09:58.197Z,101671
2017-11-16T00:12:28.042Z,101677
2017-11-16T00:14:57.917Z,101672
2017-11-16T00:17:27.850Z,101679
2017-11-16T00:19:57.715Z,101669
2017-11-16T00:22:27.594Z,101670
2017-11-16T00:24:57.452Z,101662
2017-11-16T00:27:27.323Z,101663
2017-11-16T00:29:57.211Z,101670
2017-11-16T00:32:27.106Z,101676
2017-11-16T00:34:56.990Z,101679
2017-11-16T00:37:26.844Z,101679
2017-11-16T00:39:56.718Z,101677
2017-11-16T00:42:26.594Z,101668
2017-11-16T00:44:56.462Z,101674
2017-11-16T00:47:26.347Z,101668
2017-11-16T00:49:56.192Z,101677
2017-11-16T00:52:26.074Z,101671
2017-11-16T00:54:55.940Z,101670
2017-11-16T00:57:26.201Z,101668
2017-11-16T00:59:56.061Z,101675
2017-11-16T01:02:25.944Z,101667
2017-11-16T01:04:55.909Z,101663
2017-11-16T01:07:25.799Z,101671
2017-11-16T01:09:55.655Z,101670
2017-11-16T01:12:25.615Z,101662
2017-11-16T01:14:55.483Z,101667
2017-11-16T01:17:25.354Z,101669
2017-11-16T01:19:55.235Z,101602
2017-11-16T01:22:25.119Z,101666
2017-11-16T01:24:54.996Z,101666
2017-11-16T01:27:24.859Z,101660
2017-11-16T01:29:54.803Z,101662
2017-11-16T01:32:24.662Z,101657
2017-11-16T01:34:54.540Z,101662
2017-11-16T01:37:24.427Z,101656
2017-11-16T01:39:54.299Z,101649
2017-11-16T01:42:24.184Z,101647
2017-11-16T01:45:02.218Z,101508
2017-11-16T01:47:32.253Z,101651
2017-11-16T01:50:02.120Z,101647
2017-11-16T01:52:32.015Z,101650
2017-11-16T01:55:01.999Z,101638
2017-11-16T01:57:31.908Z,101645
2017-11-16T02:00:02.217Z,101639
2017-11-16T02:02:39.961Z,101637
2017-11-16T02:05:09.834Z,101628
2017-11-16T02:07:39.780Z,101632
2017-11-16T02:10:09.656Z,101622
2017-11-16T02:12:39.530Z,101625
2017-11-16T02:15:09.398Z,101624
2017-11-16T02:17:39.251Z,101612
2017-11-16T02:20:09.186Z,101613
2017-11-16T02:22:39.031Z,101614
2017-11-16T02:25:08.906Z,101616
2017-11-16T02:27:38.759Z,101613
2017-11-16T02:30:08.727Z,101609
2017-11-16T02:32:38.616Z,101601
2017-11-16T02:35:08.471Z,101609
2017-11-16T02:37:38.308Z,101600
2017-11-16T02:40:08.187Z,101604
2017-11-16T02:42:38.051Z,101595
2017-11-16T02:45:07.904Z,101603
2017-11-16T02:47:37.776Z,101605
2017-11-16T02:50:07.639Z,101614
2017-11-16T02:52:37.526Z,101612
2017-11-16T02:55:07.441Z,101601
2017-11-16T02:57:37.470Z,101599
2017-11-16T03:00:07.339Z,101604
2017-11-16T03:02:37.196Z,101575
2017-11-16T03:05:07.083Z,101606
2017-11-16T03:07:36.978Z,101607
2017-11-16T03:10:07.809Z,101598
2017-11-16T03:12:37.664Z,101598
2017-11-16T03:15:07.541Z,101596
2017-11-16T03:17:38.239Z,101601
2017-11-16T03:20:08.126Z,101601
2017-11-16T03:22:38.007Z,101594
2017-11-16T03:25:07.859Z,101593
2017-11-16T03:27:37.742Z,101594
2017-11-16T03:30:07.590Z,101587
2017-11-16T03:32:37.758Z,101584
2017-11-16T03:35:07.618Z,101592
2017-11-16T03:37:37.618Z,101581
2017-11-16T03:40:08.168Z,101574
2017-11-16T03:42:38.022Z,101567
2017-11-16T03:45:07.893Z,101576
2017-11-16T03:47:37.774Z,101582
2017-11-16T03:50:07.664Z,101582
2017-11-16T03:52:37.551Z,101542
2017-11-16T03:55:07.431Z,101580
2017-11-16T03:57:37.290Z,101580
2017-11-16T04:00:07.142Z,101574
2017-11-16T04:02:37.041Z,101573
2017-11-16T04:05:06.894Z,101578
2017-11-16T04:07:36.787Z,101572
2017-11-16T04:10:06.643Z,101574
2017-11-16T04:12:36.515Z,101573
2017-11-16T04:15:06.383Z,101578
2017-11-16T04:17:36.276Z,101573
2017-11-16T04:20:06.755Z,101578
2017-11-16T04:22:36.603Z,101576
2017-11-16T04:25:06.471Z,101565
2017-11-16T04:27:36.316Z,101567
2017-11-16T04:30:06.634Z,101571
2017-11-16T04:32:36.594Z,101569
2017-11-16T04:35:06.447Z,101559
2017-11-16T04:37:36.352Z,101521
2017-11-16T04:40:06.198Z,101556
2017-11-16T04:42:36.055Z,101553
2017-11-16T04:45:05.939Z,101554
2017-11-16T04:47:35.828Z,101558
2017-11-16T04:50:05.720Z,101550
2017-11-16T04:52:35.587Z,101554
2017-11-16T04:55:05.460Z,101549
2017-11-16T04:57:36.214Z,101557
2017-11-16T05:00:06.590Z,101550
2017-11-16T05:02:36.475Z,101551
2017-11-16T05:05:06.347Z,101554
2017-11-16T05:07:36.285Z,101548
2017-11-16T05:10:06.725Z,101532
2017-11-16T05:12:36.670Z,101540
2017-11-16T05:15:06.537Z,101530
2017-11-16T05:17:36.410Z,101541
2017-11-16T05:20:06.287Z,101537
2017-11-16T05:22:36.136Z,101527
2017-11-16T05:25:06.015Z,101533
2017-11-16T05:27:35.899Z,101535
2017-11-16T05:30:05.795Z,101527
2017-11-16T05:32:35.777Z,101536
2017-11-16T05:35:05.870Z,101534
2017-11-16T05:37:35.786Z,101530
2017-11-16T05:40:05.659Z,101518
2017-11-16T05:42:36.099Z,101528
2017-11-16T05:45:05.977Z,101518
2017-11-16T05:47:36.211Z,101492
2017-11-16T05:50:06.665Z,101525
2017-11-16T05:52:36.682Z,101525
2017-11-16T05:55:06.574Z,101518
2017-11-16T05:57:36.425Z,101521
2017-11-16T06:00:06.291Z,101521
2017-11-16T06:02:36.227Z,101527
2017-11-16T06:05:06.075Z,101524
2017-11-16T06:07:35.960Z,101514
2017-11-16T06:10:05.809Z,101524
2017-11-16T06:12:35.784Z,101533
2017-11-16T06:15:05.653Z,101531
2017-11-16T06:17:35.531Z,101533
2017-11-16T06:20:05.380Z,101533
2017-11-16T06:22:35.450Z,101540
2017-11-16T06:25:05.563Z,101540
2017-11-16T06:27:35.513Z,101536
2017-11-16T06:30:05.396Z,101532
2017-11-16T06:32:35.255Z,101528
2017-11-16T06:35:05.138Z,101523
2017-11-16T06:37:34.990Z,101532
2017-11-16T06:40:04.888Z,101519
2017-11-16T06:42:34.734Z,101535
2017-11-16T06:45:04.616Z,101541
2017-11-16T06:47:34.456Z,101532
2017-11-16T06:50:04.334Z,101534
2017-11-16T06:52:34.227Z,101527
2017-11-16T06:55:04.082Z,101533
2017-11-16T06:57:33.964Z,101531
2017-11-16T07:00:03.811Z,101524
2017-11-16T07:02:33.689Z,101528
2017-11-16T07:05:03.552Z,101537
2017-11-16T07:07:33.455Z,101538
2017-11-16T07:10:03.341Z,101539
2017-11-16T07:12:33.236Z,101540
2017-11-16T07:15:03.118Z,101541
2017-11-16T07:17:32.986Z,101546
2017-11-16T07:20:02.865Z,101544
2017-11-16T07:22:32.738Z,101550
2017-11-16T07:25:02.621Z,101544
2017-11-16T07:27:33.521Z,101544
2017-11-16T07:30:03.429Z,101539
2017-11-16T07:32:33.288Z,101545
2017-11-16T07:35:03.239Z,101533
2017-11-16T07:37:33.091Z,101546
2017-11-16T07:40:02.991Z,101549
2017-11-16T07:42:32.895Z,101551
2017-11-16T07:45:02.768Z,101549
2017-11-16T07:47:32.642Z,101540
2017-11-16T07:50:02.542Z,101547
2017-11-16T07:52:32.465Z,101543
2017-11-16T07:55:02.387Z,101546
2017-11-16T07:57:32.391Z,101547
2017-11-16T08:00:02.336Z,101540
2017-11-16T08:02:32.237Z,101526
2017-11-16T08:05:02.104Z,101536
2017-11-16T08:07:32.012Z,101527
2017-11-16T08:10:01.883Z,101530
2017-11-16T08:25:31.779Z,101527
2017-11-16T08:28:01.631Z,101515
2017-11-16T08:30:31.582Z,101511
2017-11-16T08:33:01.452Z,101510
2017-11-16T08:35:31.364Z,101514
2017-11-16T08:38:01.251Z,101517
2017-11-16T08:40:31.106Z,101515
2017-11-16T08:43:01.061Z,101506
2017-11-16T08:45:30.907Z,101506
2017-11-16T08:48:00.779Z,101513
2017-11-16T08:50:30.695Z,101514
2017-11-16T08:53:00.577Z,101514
2017-11-16T08:55:30.419Z,101516
2017-11-16T08:58:00.273Z,101516
2017-11-16T09:00:30.151Z,101520
2017-11-16T09:03:00.180Z,101513
2017-11-16T09:05:30.087Z,101511
2017-11-16T09:07:59.954Z,101512
2017-11-16T09:10:30.587Z,101515
2017-11-16T09:13:00.461Z,101513
2017-11-16T09:15:30.323Z,101514
2017-11-16T09:18:00.184Z,101523
2017-11-16T09:20:30.046Z,101512
2017-11-16T09:22:59.926Z,101514
2017-11-16T09:25:29.771Z,101518
2017-11-16T09:27:59.685Z,101514
2017-11-16T09:30:29.536Z,101522
2017-11-16T09:32:59.406Z,101516
2017-11-16T09:35:29.350Z,101519
2017-11-16T09:37:59.203Z,101516
2017-11-16T09:40:29.095Z,101514
2017-11-16T09:42:58.954Z,101514
2017-11-16T09:45:28.842Z,101509
2017-11-16T09:47:58.701Z,101508
2017-11-16T09:50:28.604Z,101510
2017-11-16T09:52:58.461Z,101514
2017-11-16T09:55:28.320Z,101518
2017-11-16T09:57:58.355Z,101512
2017-11-16T10:00:28.198Z,101514
2017-11-16T10:02:58.085Z,101508
2017-11-16T10:05:27.940Z,101507
2017-11-16T10:07:57.841Z,101509
2017-11-16T10:10:27.714Z,101497
2017-11-16T10:12:57.600Z,101494
2017-11-16T10:15:27.540Z,101490
2017-11-16T10:17:57.399Z,101488
2017-11-16T10:20:27.287Z,101486
2017-11-16T10:22:57.148Z,101490
2017-11-16T10:25:27.045Z,101490
2017-11-16T10:27:56.998Z,101475
2017-11-16T10:30:26.934Z,101477
2017-11-16T10:32:56.825Z,101470
2017-11-16T10:35:26.704Z,101464
2017-11-16T10:37:56.595Z,101456
2017-11-16T10:40:26.488Z,101456
2017-11-16T10:42:56.345Z,101453
2017-11-16T10:45:26.222Z,101444
2017-11-16T10:47:56.171Z,101443
2017-11-16T10:50:26.040Z,101437
2017-11-16T10:52:55.928Z,101439
2017-11-16T10:55:25.802Z,101437
2017-11-16T10:57:55.719Z,101433
2017-11-16T11:00:25.613Z,101431
2017-11-16T11:02:55.527Z,101430
2017-11-16T11:05:25.378Z,101425
2017-11-16T11:07:55.271Z,101421
2017-11-16T11:10:25.158Z,101421
2017-11-16T11:12:55.023Z,101418
2017-11-16T11:15:24.907Z,101413
2017-11-16T11:17:54.773Z,101412
2017-11-16T11:20:24.659Z,101401
2017-11-16T11:22:54.528Z,101411
2017-11-16T11:25:24.503Z,101410
2017-11-16T11:27:54.373Z,101401
2017-11-16T11:30:24.256Z,101405
2017-11-16T11:32:54.126Z,101404
2017-11-16T11:35:24.002Z,101401
2017-11-16T11:37:53.921Z,101398
2017-11-16T11:40:23.783Z,101391
2017-11-16T11:42:53.770Z,101394
2017-11-16T11:45:23.627Z,101393
2017-11-16T11:47:53.510Z,101397
2017-11-16T11:50:24.280Z,101388
2017-11-16T11:52:54.142Z,101396
2017-11-16T11:55:24.031Z,101395
2017-11-16T11:57:53.938Z,101383
2017-11-16T12:00:23.815Z,101386
2017-11-16T12:02:53.670Z,101390
2017-11-16T12:05:23.564Z,101389
2017-11-16T12:07:53.432Z,101381
2017-11-16T12:10:23.302Z,101382
2017-11-16T12:12:53.192Z,101390
2017-11-16T12:15:23.067Z,101383
2017-11-16T12:17:53.251Z,101382
2017-11-16T12:20:23.118Z,101378
2017-11-16T12:22:52.999Z,101378
2017-11-16T12:25:22.850Z,101373
2017-11-16T12:27:52.750Z,101371
2017-11-16T12:30:22.659Z,101376
2017-11-16T12:32:52.507Z,101381
2017-11-16T12:35:22.353Z,101374
2017-11-16T12:37:52.219Z,101376
2017-11-16T12:40:22.119Z,101374
2017-11-16T12:42:51.989Z,101371
2017-11-16T12:45:21.886Z,101381
2017-11-16T12:47:51.771Z,101381
2017-11-16T12:50:21.664Z,101374
2017-11-16T12:52:51.514Z,101378
2017-11-16T12:55:21.405Z,101382
2017-11-16T12:57:51.252Z,101373
2017-11-16T13:00:21.111Z,101375
2017-11-16T13:02:51.015Z,101364
2017-11-16T13:05:20.905Z,101361
2017-11-16T13:07:50.808Z,101355
2017-11-16T13:10:20.708Z,101355
2017-11-16T13:12:50.606Z,101351
2017-11-16T13:15:20.480Z,101342
2017-11-16T13:17:50.363Z,101341
2017-11-16T13:20:20.281Z,101332
2017-11-16T13:22:50.151Z,101329
2017-11-16T13:25:20.294Z,101335
2017-11-16T13:27:50.377Z,101330
2017-11-16T13:30:20.353Z,101332
2017-11-16T13:32:50.215Z,101331
2017-11-16T13:35:20.092Z,101314
2017-11-16T13:37:50.059Z,101323
2017-11-16T13:40:19.983Z,101316
2017-11-16T13:42:50.199Z,101307
2017-11-16T13:45:20.114Z,101302
2017-11-16T13:47:50.060Z,101306
2017-11-16T13:50:20.099Z,101304
2017-11-16T13:52:50.114Z,101292
2017-11-16T13:55:20.089Z,101292
2017-11-16T13:57:50.007Z,101298
2017-11-16T14:00:19.976Z,101291
2017-11-16T14:02:49.879Z,101276
2017-11-16T14:05:19.755Z,101287
2017-11-16T14:07:49.639Z,101287
2017-11-16T14:10:19.534Z,101288
2017-11-16T14:12:49.472Z,101291
2017-11-16T14:15:19.413Z,101290
2017-11-16T14:17:49.313Z,101291
2017-11-16T14:20:19.184Z,101290
2017-11-16T14:22:49.233Z,101286
2017-11-16T14:25:19.118Z,101282
2017-11-16T14:27:49.003Z,101294
2017-11-16T14:30:18.864Z,101258
2017-11-16T14:32:48.864Z,101289
2017-11-16T14:35:18.746Z,101287
2017-11-16T14:37:48.687Z,101287
2017-11-16T14:40:18.559Z,101278
2017-11-16T14:42:48.465Z,101282
2017-11-16T14:45:18.351Z,101274
2017-11-16T14:47:48.244Z,101273
2017-11-16T14:50:18.131Z,101273
2017-11-16T14:52:48.023Z,101283
2017-11-16T14:55:18.003Z,101272
2017-11-16T14:57:47.889Z,101277
2017-11-16T15:00:17.911Z,101271
2017-11-16T15:02:47.981Z,101273
2017-11-16T15:05:17.971Z,101268
2017-11-16T15:07:47.879Z,101275
2017-11-16T15:10:17.941Z,101270
2017-11-16T15:12:47.868Z,101264
2017-11-16T15:15:17.797Z,101263
2017-11-16T15:17:47.650Z,101263
2017-11-16T15:20:17.540Z,101253
2017-11-16T15:22:47.400Z,101254
2017-11-16T15:25:17.264Z,101253
2017-11-16T15:27:47.156Z,101263
2017-11-16T15:30:17.027Z,101253
2017-11-16T15:32:46.978Z,101261
2017-11-16T15:35:16.836Z,101256
2017-11-16T15:37:46.737Z,101252
2017-11-16T15:40:16.662Z,101257
2017-11-16T15:42:46.556Z,101243
2017-11-16T15:47:52.720Z,101240
2017-11-16T15:50:22.624Z,101242
2017-11-16T15:52:52.516Z,101235
2017-11-16T15:55:22.377Z,101231
2017-11-16T15:57:52.359Z,101232
2017-11-16T16:00:22.220Z,101221
2017-11-16T16:02:52.107Z,101234
2017-11-16T16:05:22.025Z,101227
2017-11-16T16:07:51.887Z,101220
2017-11-16T16:10:21.773Z,101226
2017-11-16T16:12:51.644Z,101228
2017-11-16T16:15:21.531Z,101219
2017-11-16T16:17:51.396Z,101218
2017-11-16T16:20:21.267Z,101216
2017-11-16T16:22:51.143Z,101214
2017-11-16T16:25:21.024Z,101214
2017-11-16T16:27:50.939Z,101208
2017-11-16T16:30:20.827Z,101192
2017-11-16T16:32:50.750Z,101203
2017-11-16T16:35:20.614Z,101207
2017-11-16T16:37:50.632Z,101211
2017-11-16T16:40:20.491Z,101212
2017-11-16T16:42:50.425Z,101216
2017-11-16T16:45:20.322Z,101208
2017-11-16T16:47:50.200Z,101208
2017-11-16T16:50:20.119Z,101204
2017-11-16T16:52:50.048Z,101209
2017-11-16T16:55:20.054Z,101205
2017-11-16T16:57:49.939Z,101201
2017-11-16T17:00:19.825Z,101216
2017-11-16T17:02:49.698Z,101214
2017-11-16T17:05:19.617Z,101208
2017-11-16T17:07:49.555Z,101213
2017-11-16T17:10:19.460Z,101221
2017-11-16T17:12:49.417Z,101207
2017-11-16T17:15:19.299Z,101210
2017-11-16T17:17:49.230Z,101207
2017-11-16T17:20:19.108Z,101201
2017-11-16T17:22:49.064Z,101200
2017-11-16T17:25:18.939Z,101191
2017-11-16T17:27:48.906Z,101202
2017-11-16T17:30:18.940Z,101202
2017-11-16T17:32:48.888Z,101197
2017-11-16T17:35:18.999Z,101207
2017-11-16T17:37:48.918Z,101208
2017-11-16T17:40:18.915Z,101216
2017-11-16T17:42:48.978Z,101217
2017-11-16T17:45:18.851Z,101212
2017-11-16T17:47:48.824Z,101210
2017-11-16T17:50:18.735Z,101210
2017-11-16T17:52:48.719Z,101207
2017-11-16T17:55:18.610Z,101204
2017-11-16T17:57:48.497Z,101206
2017-11-16T18:00:18.397Z,101206
2017-11-16T18:02:48.358Z,101203
2017-11-16T18:05:18.433Z,101206
2017-11-16T18:07:48.306Z,101208
2017-11-16T18:10:18.231Z,101203
2017-11-16T18:12:48.123Z,101204
2017-11-16T18:15:18.084Z,101200
2017-11-16T18:17:48.020Z,101200
2017-11-16T18:20:17.946Z,101198
2017-11-16T18:22:47.814Z,101204
2017-11-16T18:25:17.695Z,101196
2017-11-16T18:27:47.560Z,101199
2017-11-16T18:30:17.478Z,101194
2017-11-16T18:32:47.352Z,101190
2017-11-16T18:35:17.275Z,101184
2017-11-16T18:37:47.262Z,101182
2017-11-16T18:40:17.210Z,101180
2017-11-16T18:42:47.155Z,101183
2017-11-16T18:45:17.055Z,101180
2017-11-16T18:47:47.015Z,101172
2017-11-16T18:50:16.891Z,101176
2017-11-16T18:52:46.840Z,101175
2017-11-16T18:55:16.753Z,101177
2017-11-16T18:57:46.658Z,101185
2017-11-16T19:00:16.560Z,101183
2017-11-16T19:02:46.472Z,101185
2017-11-16T19:05:16.379Z,101188
2017-11-16T19:07:46.276Z,101192
2017-11-16T19:10:16.179Z,101189
2017-11-16T19:12:46.207Z,101185
2017-11-16T19:15:16.247Z,101183
2017-11-16T19:17:46.449Z,101182
2017-11-16T19:20:16.368Z,101183
2017-11-16T19:22:46.269Z,101181
2017-11-16T19:25:16.175Z,101179
2017-11-16T19:27:46.054Z,101180
2017-11-16T19:30:15.939Z,101173
2017-11-16T19:32:45.888Z,101173
2017-11-16T19:35:15.805Z,101169
2017-11-16T19:37:45.662Z,101174
2017-11-16T19:40:15.632Z,101190
2017-11-16T19:42:45.550Z,101191
2017-11-16T19:45:15.475Z,101189
2017-11-16T19:47:45.371Z,101194
2017-11-16T19:50:15.247Z,101193
2017-11-16T19:52:45.265Z,101193
2017-11-16T19:55:15.148Z,101190
2017-11-16T19:57:45.095Z,101194
2017-11-16T20:00:14.968Z,101189
2017-11-16T20:02:44.950Z,101202
2017-11-16T20:05:14.881Z,101195
2017-11-16T20:07:44.780Z,101195
2017-11-16T20:10:14.672Z,101196
2017-11-16T20:12:44.598Z,101199
2017-11-16T20:15:14.469Z,101198
2017-11-16T20:17:44.429Z,101198
2017-11-16T20:20:15.711Z,101196
2017-11-16T20:22:45.613Z,101195
2017-11-16T20:25:15.561Z,101191
2017-11-16T20:27:45.417Z,101202
2017-11-16T20:30:16.054Z,101196
2017-11-16T20:32:45.962Z,101201
2017-11-16T20:35:15.857Z,101202
2017-11-16T20:38:00.584Z,101211
2017-11-16T20:43:54.469Z,101200
2017-11-16T20:46:33.133Z,101197
2017-11-16T20:49:08.819Z,101204
2017-11-16T20:51:44.399Z,101211
2017-11-16T20:54:20.783Z,101205
2017-11-16T20:56:50.647Z,101200
2017-11-16T20:59:20.500Z,101202
2017-11-16T21:01:50.423Z,101200
2017-11-16T21:04:20.297Z,101192
2017-11-16T21:06:50.198Z,101182
2017-11-16T21:09:20.072Z,101185
2017-11-16T21:11:49.960Z,101182
2017-11-16T21:14:19.833Z,101180
2017-11-16T21:16:49.822Z,101186
2017-11-16T21:19:19.861Z,101185
2017-11-16T21:21:49.789Z,101187
2017-11-16T21:24:19.664Z,101185
2017-11-16T21:26:49.583Z,101178
2017-11-16T21:29:19.466Z,101177
2017-11-16T21:31:49.338Z,101181
2017-11-16T21:34:19.259Z,101180
2017-11-16T21:36:49.143Z,101183
2017-11-16T21:39:19.030Z,101178
2017-11-16T21:41:48.935Z,101174
2017-11-16T21:44:18.890Z,101178
2017-11-16T21:46:48.769Z,101174
2017-11-16T21:49:18.894Z,101178
2017-11-16T21:51:48.756Z,101184
2017-11-16T21:54:18.693Z,101182
2017-11-16T21:56:48.587Z,101180
2017-11-16T21:59:18.574Z,101178
2017-11-16T22:01:48.452Z,101183
2017-11-16T22:04:19.330Z,101180
2017-11-16T22:06:49.206Z,101186
2017-11-16T22:09:19.093Z,101192
2017-11-16T22:11:49.004Z,101181
2017-11-16T22:14:18.879Z,101193
2017-11-16T22:16:48.769Z,101205
2017-11-16T22:19:18.695Z,101205
2017-11-16T22:21:48.633Z,101210
2017-11-16T22:24:18.589Z,101207
2017-11-16T22:26:48.488Z,101216
2017-11-16T22:29:18.616Z,101219
2017-11-16T22:31:48.487Z,101221
2017-11-16T22:34:18.446Z,101232
2017-11-16T22:36:48.312Z,101228
2017-11-16T22:39:18.219Z,101240
2017-11-16T22:41:48.242Z,101244
2017-11-16T22:44:18.094Z,101256
2017-11-16T22:46:48.121Z,101239
2017-11-16T22:49:18.025Z,101254
2017-11-16T22:51:47.959Z,101251
2017-11-16T22:54:17.845Z,101260
2017-11-16T22:56:47.716Z,101257
2017-11-16T22:59:17.580Z,101268
2017-11-16T23:01:48.065Z,101264
2017-11-16T23:04:18.272Z,101267
2017-11-16T23:06:48.246Z,101266
2017-11-16T23:09:18.693Z,101262
2017-11-16T23:11:48.550Z,101263
2017-11-16T23:14:18.405Z,101267
2017-11-16T23:16:48.267Z,101272
2017-11-16T23:19:18.121Z,101274
2017-11-16T23:21:48.037Z,101275
2017-11-16T23:24:17.911Z,101279
2017-11-16T23:26:47.854Z,101281
2017-11-16T23:29:17.748Z,101283
2017-11-16T23:31:47.650Z,101284
2017-11-16T23:34:17.636Z,101290
2017-11-16T23:36:47.598Z,101294
2017-11-16T23:39:17.458Z,101296
2017-11-16T23:41:47.371Z,101309
2017-11-16T23:44:17.218Z,101304
2017-11-16T23:46:47.108Z,101304
2017-11-16T23:49:17.040Z,101306
2017-11-16T23:51:46.942Z,101308
2017-11-16T23:54:16.906Z,101306
2017-11-16T23:56:46.786Z,101318
2017-11-16T23:59:16.644Z,101313
